Time;durP1;ratioP1;P1;durP2;ratioP2;P2;SDS_P1;SDS_P2;PMS_P1;PMS_P2;Temp;Humidity;BMP_temperature;BMP_pressure;BME280_temperature;BME280_humidity;BME280_pressure;Samples;Min_cycle;Max_cycle;Signal;HPM_P1;HPM_P2
2023/10/31 00:00:54;;;;;;;28.87;15.60;;;;;;;-148.15;100.00;61821.78;4984489;28;20296;-92
2023/10/31 00:03:19;;;;;;;28.47;15.20;;;;;;;-148.15;100.00;61821.78;4994425;28;20377;-92
2023/10/31 00:05:45;;;;;;;23.33;14.60;;;;;;;-148.15;100.00;61821.78;4984697;28;20077;-92
2023/10/31 00:08:10;;;;;;;27.37;14.00;;;;;;;-148.15;100.00;61821.78;4974771;28;20023;-91
2023/10/31 00:10:35;;;;;;;22.77;12.55;;;;;;;-148.15;100.00;61821.78;4974068;28;20018;-91
2023/10/31 00:13:01;;;;;;;19.63;12.67;;;;;;;-148.15;100.00;61821.78;4974115;28;20036;-91
2023/10/31 00:15:26;;;;;;;23.43;12.13;;;;;;;-148.15;100.00;61821.78;4981930;28;20022;-91
2023/10/31 00:17:52;;;;;;;23.33;11.13;;;;;;;-148.15;100.00;61821.78;4980338;28;20508;-91
2023/10/31 00:20:17;;;;;;;16.60;9.85;;;;;;;-148.15;100.00;61821.78;4974346;28;20038;-91
2023/10/31 00:22:43;;;;;;;19.40;10.00;;;;;;;-148.15;100.00;61821.78;4974224;28;20022;-92
2023/10/31 00:25:08;;;;;;;16.40;8.50;;;;;;;-148.15;100.00;61821.78;4982850;28;20035;-91
2023/10/31 00:27:34;;;;;;;15.10;7.80;;;;;;;-148.15;100.00;61821.78;4973706;28;20041;-91
2023/10/31 00:29:59;;;;;;;13.10;7.72;;;;;;;-148.15;100.00;61821.78;4973963;28;20494;-91
2023/10/31 00:32:25;;;;;;;14.60;7.50;;;;;;;-148.15;100.00;61821.78;4974731;28;20434;-91
2023/10/31 00:34:51;;;;;;;17.40;7.28;;;;;;;-148.15;100.00;61821.78;4965309;28;20110;-91
2023/10/31 00:37:16;;;;;;;17.93;7.10;;;;;;;-148.15;100.00;61821.78;4982985;28;20169;-90
2023/10/31 00:39:41;;;;;;;16.17;7.03;;;;;;;-148.15;100.00;61821.78;4993366;28;20029;-91
2023/10/31 00:42:07;;;;;;;12.77;5.93;;;;;;;-148.15;100.00;61821.78;4990877;28;20029;-90
2023/10/31 00:44:32;;;;;;;13.43;5.30;;;;;;;-148.15;100.00;61821.78;4993150;28;20430;-91
2023/10/31 00:46:57;;;;;;;12.23;5.07;;;;;;;-148.15;100.00;61821.78;4976128;28;20030;-91
2023/10/31 00:49:23;;;;;;;13.47;5.33;;;;;;;-148.15;100.00;61821.78;4974298;28;20482;-92
2023/10/31 00:51:48;;;;;;;10.73;4.87;;;;;;;-148.15;100.00;61821.78;4982494;28;20031;-91
2023/10/31 00:54:14;;;;;;;12.03;5.10;;;;;;;-148.15;100.00;61821.78;4997657;28;20056;-92
2023/10/31 00:56:39;;;;;;;10.80;4.88;;;;;;;-148.15;100.00;61821.78;4980164;28;20411;-91
2023/10/31 00:59:04;;;;;;;11.57;4.63;;;;;;;-148.15;100.00;61821.78;4974205;28;20027;-91
2023/10/31 01:01:30;;;;;;;10.27;4.70;;;;;;;-148.15;100.00;61821.78;4973080;28;20019;-91
2023/10/31 01:03:55;;;;;;;11.17;4.73;;;;;;;-148.15;100.00;61821.78;4987418;28;20057;-91
2023/10/31 01:06:20;;;;;;;11.53;4.77;;;;;;;-148.15;100.00;61821.78;4982281;28;20049;-91
2023/10/31 01:08:46;;;;;;;8.90;4.57;;;;;;;-148.15;100.00;61821.78;4972930;28;20467;-92
2023/10/31 01:11:11;;;;;;;8.70;4.83;;;;;;;-148.15;100.00;61821.78;4971408;28;20066;-91
2023/10/31 01:13:36;;;;;;;13.87;5.57;;;;;;;-148.15;100.00;61821.78;4973005;28;20027;-91
2023/10/31 01:16:03;;;;;;;15.50;5.07;;;;;;;-148.15;100.00;61821.78;4971489;28;20078;-91
2023/10/31 01:18:28;;;;;;;14.57;5.60;;;;;;;-148.15;100.00;61821.78;4970971;28;20110;-92
2023/10/31 01:20:53;;;;;;;20.13;6.93;;;;;;;-148.15;100.00;61821.78;4972940;28;20554;-90
2023/10/31 01:23:19;;;;;;;22.07;7.57;;;;;;;-148.15;100.00;61821.78;4972827;28;20074;-90
2023/10/31 01:25:44;;;;;;;20.43;8.40;;;;;;;-148.15;100.00;61821.78;4971608;28;20034;-91
2023/10/31 01:28:09;;;;;;;24.90;9.03;;;;;;;-148.15;100.00;61821.78;4972588;28;20054;-90
2023/10/31 01:30:35;;;;;;;29.17;10.83;;;;;;;-148.15;100.00;61821.78;4972470;28;20037;-91
2023/10/31 01:33:00;;;;;;;32.77;12.83;;;;;;;-148.15;100.00;61821.78;4973018;28;20031;-91
2023/10/31 01:35:25;;;;;;;33.15;13.68;;;;;;;-148.15;100.00;61821.78;4971539;28;20061;-90
2023/10/31 01:37:51;;;;;;;39.10;15.20;;;;;;;-148.15;100.00;61821.78;4973250;28;20112;-92
2023/10/31 01:40:16;;;;;;;42.73;14.47;;;;;;;-148.15;100.00;61821.78;4971386;28;20066;-90
2023/10/31 01:42:41;;;;;;;39.90;15.43;;;;;;;-148.15;100.00;61821.78;4972483;28;20019;-90
2023/10/31 01:45:08;;;;;;;47.50;17.30;;;;;;;-148.15;100.00;61821.78;4971978;28;20043;-91
2023/10/31 01:47:34;;;;;;;40.70;17.88;;;;;;;-148.15;100.00;61821.78;4984728;28;20058;-92
2023/10/31 01:50:00;;;;;;;41.85;18.63;;;;;;;-148.15;100.00;61821.78;4993358;28;20093;-92
2023/10/31 01:52:26;;;;;;;48.20;19.98;;;;;;;-148.15;100.00;61821.78;4992493;28;20058;-91
2023/10/31 01:54:52;;;;;;;49.83;19.40;;;;;;;-148.15;100.00;61821.78;5003777;28;20058;-91
2023/10/31 01:57:18;;;;;;;53.87;20.43;;;;;;;-148.15;100.00;61821.78;4985783;28;20290;-90
2023/10/31 01:59:44;;;;;;;52.28;21.13;;;;;;;-148.15;100.00;61821.78;4982271;28;20462;-91
2023/10/31 02:02:10;;;;;;;50.60;22.27;;;;;;;-148.15;100.00;61821.78;4991995;28;20046;-92
2023/10/31 02:04:35;;;;;;;55.97;22.57;;;;;;;-148.15;100.00;61821.78;4997141;28;20274;-91
2023/10/31 02:07:00;;;;;;;64.60;24.83;;;;;;;-148.15;100.00;61821.78;4977172;28;20482;-91
2023/10/31 02:09:29;;;;;;;59.37;23.57;;;;;;;-148.15;100.00;61821.78;4974668;28;20545;-91
2023/10/31 02:11:54;;;;;;;61.70;24.08;;;;;;;-148.15;100.00;61821.78;4988065;28;20054;-91
2023/10/31 02:14:22;;;;;;;64.07;24.77;;;;;;;-148.15;100.00;61821.78;4979735;28;20058;-92
2023/10/31 02:16:47;;;;;;;64.15;24.75;;;;;;;-148.15;100.00;61821.78;4979038;28;20030;-91
2023/10/31 02:19:18;;;;;;;65.23;24.77;;;;;;;-148.15;100.00;61821.78;4972110;28;20119;-91
2023/10/31 02:21:43;;;;;;;59.30;24.85;;;;;;;-148.15;100.00;61821.78;4971824;28;20487;-91
2023/10/31 02:24:09;;;;;;;63.03;24.50;;;;;;;-148.15;100.00;61821.78;4971401;28;20077;-91
2023/10/31 02:26:35;;;;;;;70.87;26.10;;;;;;;-148.15;100.00;61821.78;4978905;28;20027;-91
2023/10/31 02:29:01;;;;;;;68.70;27.13;;;;;;;-148.15;100.00;61821.78;4972044;28;20026;-91
2023/10/31 02:31:27;;;;;;;69.33;25.87;;;;;;;-148.15;100.00;61821.78;4972089;28;20019;-91
2023/10/31 02:33:54;;;;;;;67.03;25.38;;;;;;;-148.15;100.00;61821.78;4971847;28;20085;-92
2023/10/31 02:36:19;;;;;;;65.57;26.15;;;;;;;-148.15;100.00;61821.78;4971692;28;20035;-92
2023/10/31 02:38:45;;;;;;;67.83;25.03;;;;;;;-148.15;100.00;61821.78;4971755;28;20034;-91
2023/10/31 02:41:11;;;;;;;67.93;25.17;;;;;;;-148.15;100.00;61821.78;4972143;28;20510;-91
2023/10/31 02:43:40;;;;;;;66.00;25.33;;;;;;;-148.15;100.00;61821.78;4972702;28;20102;-90
2023/10/31 02:46:05;;;;;;;64.57;25.15;;;;;;;-148.15;100.00;61821.78;4972896;28;20502;-91
2023/10/31 02:48:37;;;;;;;65.07;26.30;;;;;;;-148.15;100.00;61821.78;4972935;28;20054;-91
2023/10/31 02:51:04;;;;;;;67.05;27.02;;;;;;;-148.15;100.00;61821.78;4972859;28;20102;-92
2023/10/31 02:53:29;;;;;;;73.00;26.00;;;;;;;-148.15;100.00;61821.78;4996777;28;20026;-91
2023/10/31 02:55:55;;;;;;;65.93;25.93;;;;;;;-148.15;100.00;61821.78;4982536;28;20045;-92
2023/10/31 02:58:20;;;;;;;66.53;26.47;;;;;;;-148.15;100.00;61821.78;4971766;28;20059;-91
2023/10/31 03:00:45;;;;;;;68.67;25.03;;;;;;;-148.15;100.00;61821.78;4971497;28;20487;-92
2023/10/31 03:03:10;;;;;;;67.10;25.00;;;;;;;-148.15;100.00;61821.78;4986970;28;20034;-92
2023/10/31 03:05:36;;;;;;;72.87;26.23;;;;;;;-148.15;100.00;61821.78;4981093;28;20119;-91
2023/10/31 03:08:01;;;;;;;66.10;25.60;;;;;;;-148.15;100.00;61821.78;4972169;28;20066;-92
2023/10/31 03:10:37;;;;;;;68.80;24.93;;;;;;;-148.15;100.00;61821.78;5018811;23;20038;-91
2023/10/31 03:13:03;;;;;;;72.80;26.25;;;;;;;-148.15;100.00;61821.78;5001398;28;20037;-92
2023/10/31 03:15:28;;;;;;;66.97;27.00;;;;;;;-148.15;100.00;61821.78;4988567;28;20030;-92
2023/10/31 03:17:53;;;;;;;66.00;26.47;;;;;;;-148.15;100.00;61821.78;4991765;28;20369;-91
2023/10/31 03:20:25;;;;;;;70.10;26.50;;;;;;;-148.15;100.00;61821.78;4989202;28;20033;-91
2023/10/31 03:22:50;;;;;;;71.43;27.17;;;;;;;-148.15;100.00;61821.78;4989758;28;20058;-90
2023/10/31 03:25:15;;;;;;;68.33;27.33;;;;;;;-148.15;100.00;61821.78;4971558;28;20122;-92
2023/10/31 03:27:40;;;;;;;65.20;26.43;;;;;;;-148.15;100.00;61821.78;4977269;28;20453;-90
2023/10/31 03:30:31;;;;;;;65.47;26.92;;;;;;;-148.15;100.00;61821.78;4995719;28;20426;-91
2023/10/31 03:32:56;;;;;;;67.00;26.00;;;;;;;-148.15;100.00;61821.78;4990510;28;20113;-91
2023/10/31 03:35:21;;;;;;;70.90;27.88;;;;;;;-148.15;100.00;61821.78;4990756;28;20114;-92
2023/10/31 03:37:48;;;;;;;71.23;26.70;;;;;;;-148.15;100.00;61821.78;4994887;28;20089;-90
2023/10/31 03:40:13;;;;;;;69.80;28.00;;;;;;;-148.15;100.00;61821.78;4992444;28;20034;-90
2023/10/31 03:42:39;;;;;;;72.87;28.77;;;;;;;-148.15;100.00;61821.78;4992885;28;20026;-91
2023/10/31 03:45:05;;;;;;;71.43;28.37;;;;;;;-148.15;100.00;61821.78;4988279;28;20031;-92
2023/10/31 03:47:30;;;;;;;79.45;30.27;;;;;;;-148.15;100.00;61821.78;4983570;28;20015;-92
2023/10/31 03:49:56;;;;;;;79.93;30.53;;;;;;;-148.15;100.00;61821.78;4981335;28;20101;-92
2023/10/31 03:52:21;;;;;;;78.50;29.20;;;;;;;-148.15;100.00;61821.78;4981347;28;20125;-91
2023/10/31 03:54:46;;;;;;;77.23;29.17;;;;;;;-148.15;100.00;61821.78;4990976;28;20089;-92
2023/10/31 03:57:13;;;;;;;73.13;29.20;;;;;;;-148.15;100.00;61821.78;4993273;28;20065;-89
2023/10/31 03:59:38;;;;;;;81.65;31.42;;;;;;;-148.15;100.00;61821.78;4992233;28;20033;-90
2023/10/31 04:02:03;;;;;;;73.67;29.43;;;;;;;-148.15;100.00;61821.78;4992572;28;20209;-91
2023/10/31 04:04:29;;;;;;;80.07;30.87;;;;;;;-148.15;100.00;61821.78;4993437;28;20041;-91
2023/10/31 04:06:55;;;;;;;82.20;31.63;;;;;;;-148.15;100.00;61821.78;4993431;28;20033;-91
2023/10/31 04:09:20;;;;;;;85.95;31.95;;;;;;;-148.15;100.00;61821.78;4993869;28;20030;-91
2023/10/31 04:11:45;;;;;;;83.30;30.63;;;;;;;-148.15;100.00;61821.78;4992371;28;20034;-91
2023/10/31 04:14:11;;;;;;;82.00;31.03;;;;;;;-148.15;100.00;61821.78;4991641;28;20046;-91
2023/10/31 04:16:41;;;;;;;89.68;31.38;;;;;;;-148.15;100.00;61821.78;4993235;28;20061;-92
2023/10/31 04:19:06;;;;;;;80.10;31.07;;;;;;;-148.15;100.00;61821.78;4992375;28;20033;-90
2023/10/31 04:21:32;;;;;;;82.25;30.23;;;;;;;-148.15;100.00;61821.78;4973599;28;20026;-91
2023/10/31 04:23:57;;;;;;;82.07;32.28;;;;;;;-148.15;100.00;61821.78;4992193;28;20025;-91
2023/10/31 04:26:23;;;;;;;76.83;31.50;;;;;;;-148.15;100.00;61821.78;4992959;28;20442;-91
2023/10/31 04:28:48;;;;;;;74.47;29.13;;;;;;;-148.15;100.00;61821.78;4992192;28;20030;-91
2023/10/31 04:31:13;;;;;;;75.90;28.83;;;;;;;-148.15;100.00;61821.78;4993783;28;20022;-92
2023/10/31 04:33:39;;;;;;;75.70;30.53;;;;;;;-148.15;100.00;61821.78;4990602;28;20033;-92
2023/10/31 04:36:04;;;;;;;70.80;28.30;;;;;;;-148.15;100.00;61821.78;4986989;28;20121;-90
2023/10/31 04:38:30;;;;;;;64.57;28.02;;;;;;;-148.15;100.00;61821.78;4981210;28;20447;-92
2023/10/31 04:40:55;;;;;;;70.03;29.03;;;;;;;-148.15;100.00;61821.78;4993267;28;20022;-92
2023/10/31 04:43:20;;;;;;;66.00;26.93;;;;;;;-148.15;100.00;61821.78;4991746;28;20022;-91
2023/10/31 04:45:46;;;;;;;62.03;26.40;;;;;;;-148.15;100.00;61821.78;4992489;28;20375;-92
2023/10/31 04:48:11;;;;;;;63.30;26.90;;;;;;;-148.15;100.00;61821.78;4990344;28;20378;-90
2023/10/31 04:50:36;;;;;;;57.00;24.27;;;;;;;-148.15;100.00;61821.78;4974185;28;20048;-90
2023/10/31 04:53:02;;;;;;;53.13;23.27;;;;;;;-148.15;100.00;61821.78;4987005;28;20038;-90
2023/10/31 04:55:27;;;;;;;57.30;23.67;;;;;;;-148.15;100.00;61821.78;4991532;28;20061;-90
2023/10/31 04:57:52;;;;;;;56.57;24.30;;;;;;;-148.15;100.00;61821.78;4992704;28;20482;-90
2023/10/31 05:00:17;;;;;;;58.17;24.63;;;;;;;-148.15;100.00;61821.78;4996300;28;20042;-91
2023/10/31 05:02:43;;;;;;;56.63;24.17;;;;;;;-148.15;100.00;61821.78;4995806;28;20026;-91
2023/10/31 05:05:08;;;;;;;59.83;25.40;;;;;;;-148.15;100.00;61821.78;4990461;28;20050;-90
2023/10/31 05:07:33;;;;;;;53.80;23.20;;;;;;;-148.15;100.00;61821.78;4991920;28;20125;-89
2023/10/31 05:09:59;;;;;;;35.10;14.77;;;;;;;-148.15;100.00;61821.78;4991810;28;20029;-89
2023/10/31 05:12:24;;;;;;;32.93;14.13;;;;;;;-148.15;100.00;61821.78;4973388;28;20482;-89
2023/10/31 05:14:50;;;;;;;34.92;15.02;;;;;;;-148.15;100.00;61821.78;4973858;28;20030;-89
2023/10/31 05:17:15;;;;;;;44.70;18.37;;;;;;;-148.15;100.00;61821.78;4992965;28;20505;-89
2023/10/31 05:19:41;;;;;;;44.20;20.10;;;;;;;-148.15;100.00;61821.78;4991987;28;20389;-92
2023/10/31 05:22:07;;;;;;;40.47;18.00;;;;;;;-148.15;100.00;61821.78;4992832;28;20073;-91
2023/10/31 05:24:33;;;;;;;46.92;19.00;;;;;;;-148.15;100.00;61821.78;4992955;28;20034;-94
2023/10/31 05:26:58;;;;;;;44.55;19.92;;;;;;;-148.15;100.00;61821.78;4993741;28;20110;-93
2023/10/31 05:29:24;;;;;;;48.40;20.77;;;;;;;-148.15;100.00;61821.78;4993975;28;20081;-94
2023/10/31 05:31:49;;;;;;;44.73;20.67;;;;;;;-148.15;100.00;61821.78;4992980;28;20397;-92
2023/10/31 05:34:14;;;;;;;52.23;22.27;;;;;;;-148.15;100.00;61821.78;4992747;28;20881;-90
2023/10/31 05:36:40;;;;;;;51.57;22.43;;;;;;;-148.15;100.00;61821.78;5001620;28;20269;-93
2023/10/31 05:39:05;;;;;;;55.13;23.00;;;;;;;-148.15;100.00;61821.78;4978444;28;20050;-90
2023/10/31 05:41:34;;;;;;;55.63;24.30;;;;;;;-148.15;100.00;61821.78;4990561;28;20062;-91
2023/10/31 05:43:59;;;;;;;53.05;24.38;;;;;;;-148.15;100.00;61821.78;4972494;28;20023;-91
2023/10/31 05:46:26;;;;;;;51.27;23.23;;;;;;;-148.15;100.00;61821.78;4990980;28;20073;-92
2023/10/31 05:48:52;;;;;;;52.58;24.52;;;;;;;-148.15;100.00;61821.78;4993152;28;20037;-92
2023/10/31 05:51:18;;;;;;;52.23;23.63;;;;;;;-148.15;100.00;61821.78;4993367;28;20022;-91
2023/10/31 05:53:46;;;;;;;52.15;24.17;;;;;;;-148.15;100.00;61821.78;4993037;28;20019;-90
2023/10/31 05:56:13;;;;;;;50.67;23.98;;;;;;;-148.15;100.00;61821.78;4991281;28;20528;-91
2023/10/31 05:58:40;;;;;;;46.75;23.38;;;;;;;-148.15;100.00;61821.78;4976325;28;20072;-92
2023/10/31 06:01:06;;;;;;;54.28;24.83;;;;;;;-148.15;100.00;61821.78;4976361;28;20026;-90
2023/10/31 06:03:32;;;;;;;51.33;23.83;;;;;;;-148.15;100.00;61821.78;4962746;28;20042;-91
2023/10/31 06:05:57;;;;;;;47.72;23.05;;;;;;;-148.15;100.00;61821.78;4958046;28;20386;-90
2023/10/31 06:08:24;;;;;;;48.50;21.80;;;;;;;-148.15;100.00;61821.78;4975509;28;20033;-94
2023/10/31 06:10:52;;;;;;;47.92;22.58;;;;;;;-148.15;100.00;61821.78;4956168;28;20018;-88
2023/10/31 06:13:17;;;;;;;45.67;22.23;;;;;;;-148.15;100.00;61821.78;5001715;23;20054;-89
2023/10/31 06:15:44;;;;;;;46.83;21.70;;;;;;;-148.15;100.00;61821.78;4989930;28;20045;-89
2023/10/31 06:18:09;;;;;;;45.47;21.38;;;;;;;-148.15;100.00;61821.78;4991747;28;20026;-89
2023/10/31 06:20:35;;;;;;;40.43;20.33;;;;;;;-148.15;100.00;61821.78;4992556;28;20029;-83
2023/10/31 06:23:03;;;;;;;41.33;20.50;;;;;;;-148.15;100.00;61821.78;4989638;28;20397;-83
2023/10/31 06:25:28;;;;;;;36.25;19.13;;;;;;;-148.15;100.00;61821.78;4989059;28;20041;-84
2023/10/31 06:27:54;;;;;;;37.67;18.77;;;;;;;-148.15;100.00;61821.78;4990905;28;20398;-83
2023/10/31 06:30:19;;;;;;;38.50;18.70;;;;;;;-148.15;100.00;61821.78;4998459;28;20026;-84
2023/10/31 06:32:44;;;;;;;36.47;18.10;;;;;;;-148.15;100.00;61821.78;4991629;28;20434;-84
2023/10/31 06:35:10;;;;;;;39.13;17.83;;;;;;;-148.15;100.00;61821.78;4990826;28;20041;-84
2023/10/31 06:37:36;;;;;;;42.07;18.73;;;;;;;-148.15;100.00;61821.78;4992518;28;20045;-85
2023/10/31 06:40:02;;;;;;;40.63;18.80;;;;;;;-148.15;100.00;61821.78;4990439;28;20023;-85
2023/10/31 06:42:28;;;;;;;53.70;22.15;;;;;;;-148.15;100.00;61821.78;4987711;28;20027;-83
2023/10/31 06:44:53;;;;;;;45.70;20.23;;;;;;;-148.15;100.00;61821.78;4985146;28;20391;-85
2023/10/31 06:47:18;;;;;;;48.17;20.77;;;;;;;-148.15;100.00;61821.78;4991755;28;20480;-84
2023/10/31 06:49:44;;;;;;;51.83;21.77;;;;;;;-148.15;100.00;61821.78;4990799;28;20056;-84
2023/10/31 06:52:09;;;;;;;52.10;24.03;;;;;;;-148.15;100.00;61821.78;4992150;28;20076;-88
2023/10/31 06:54:34;;;;;;;48.30;21.20;;;;;;;-148.15;100.00;61821.78;4999601;28;20273;-85
2023/10/31 06:57:01;;;;;;;49.07;20.53;;;;;;;-148.15;100.00;61821.78;4994666;28;20034;-84
2023/10/31 06:59:29;;;;;;;51.25;22.52;;;;;;;-148.15;100.00;61821.78;4994709;28;20454;-84
2023/10/31 07:01:54;;;;;;;52.00;23.13;;;;;;;-148.15;100.00;61821.78;4993141;28;20033;-86
2023/10/31 07:04:19;;;;;;;50.37;24.03;;;;;;;-148.15;100.00;61821.78;4995256;28;20113;-85
2023/10/31 07:06:45;;;;;;;47.07;21.83;;;;;;;-148.15;100.00;61821.78;4993936;28;20035;-85
2023/10/31 07:09:10;;;;;;;46.43;22.43;;;;;;;-148.15;100.00;61821.78;4996216;28;20046;-86
2023/10/31 07:11:35;;;;;;;47.63;22.67;;;;;;;-148.15;100.00;61821.78;4988395;28;20033;-86
2023/10/31 07:14:04;;;;;;;41.07;20.83;;;;;;;-148.15;100.00;61821.78;4991632;28;20044;-86
2023/10/31 07:16:32;;;;;;;39.35;20.58;;;;;;;-148.15;100.00;61821.78;4994033;28;20454;-86
2023/10/31 07:18:57;;;;;;;40.63;19.92;;;;;;;-148.15;100.00;61821.78;4996598;28;20092;-87
2023/10/31 07:21:23;;;;;;;36.40;19.23;;;;;;;-148.15;100.00;61821.78;4994279;28;20031;-85
2023/10/31 07:23:49;;;;;;;38.25;19.20;;;;;;;-148.15;100.00;61821.78;4996194;28;20081;-85
2023/10/31 07:26:14;;;;;;;35.47;18.13;;;;;;;-148.15;100.00;61821.78;4997425;28;20034;-85
2023/10/31 07:28:39;;;;;;;40.90;19.50;;;;;;;-148.15;100.00;61821.78;4998662;28;20026;-87
2023/10/31 07:31:05;;;;;;;41.60;19.23;;;;;;;-148.15;100.00;61821.78;4997715;28;20556;-87
2023/10/31 07:33:30;;;;;;;35.60;18.35;;;;;;;-148.15;100.00;61821.78;4993838;28;20037;-87
2023/10/31 07:35:55;;;;;;;35.33;17.40;;;;;;;-148.15;100.00;61821.78;4997974;28;20478;-85
2023/10/31 07:38:21;;;;;;;32.73;17.23;;;;;;;-148.15;100.00;61821.78;4995429;28;20061;-88
2023/10/31 07:40:47;;;;;;;38.80;18.65;;;;;;;-148.15;100.00;61821.78;4999421;28;20035;-85
2023/10/31 07:43:13;;;;;;;33.03;18.00;;;;;;;-148.15;100.00;61821.78;4996126;28;20056;-87
2023/10/31 07:45:38;;;;;;;33.95;17.30;;;;;;;-148.15;100.00;61821.78;4992909;28;20070;-83
2023/10/31 07:48:04;;;;;;;31.10;15.70;;;;;;;-148.15;100.00;61821.78;4993731;28;20192;-84
2023/10/31 07:50:29;;;;;;;30.43;17.63;;;;;;;-148.15;100.00;61821.78;4990924;28;20481;-85
2023/10/31 07:52:54;;;;;;;32.23;16.67;;;;;;;-148.15;100.00;61821.78;4980711;28;20019;-86
2023/10/31 07:55:20;;;;;;;29.45;17.27;;;;;;;-148.15;100.00;61821.78;4994270;28;20604;-86
2023/10/31 07:58:04;;;;;;;34.60;16.93;;;;;;;-148.15;100.00;61821.78;4995873;28;20030;-88
2023/10/31 08:00:30;;;;;;;36.78;19.65;;;;;;;-148.15;100.00;61821.78;4997121;28;20030;-86
2023/10/31 08:02:57;;;;;;;38.30;18.83;;;;;;;-148.15;100.00;61821.78;5001928;22;20090;-86
2023/10/31 08:05:22;;;;;;;39.92;19.60;;;;;;;-148.15;100.00;61821.78;4995082;28;20109;-86
2023/10/31 08:07:48;;;;;;;39.85;20.70;;;;;;;-148.15;100.00;61821.78;4992030;28;20025;-85
2023/10/31 08:10:13;;;;;;;44.77;22.27;;;;;;;-148.15;100.00;61821.78;4991795;28;20101;-85
2023/10/31 08:12:39;;;;;;;54.83;24.57;;;;;;;-148.15;100.00;61821.78;4994712;28;20667;-87
2023/10/31 08:15:05;;;;;;;60.33;26.47;;;;;;;-148.15;100.00;61821.78;4995611;28;20038;-87
2023/10/31 08:17:30;;;;;;;55.50;26.00;;;;;;;-148.15;100.00;61821.78;5000388;28;20026;-87
2023/10/31 08:19:55;;;;;;;56.43;26.17;;;;;;;-148.15;100.00;61821.78;5004254;28;20027;-89
2023/10/31 08:22:20;;;;;;;52.53;26.13;;;;;;;-148.15;100.00;61821.78;5007608;28;20034;-87
2023/10/31 08:24:46;;;;;;;55.37;26.10;;;;;;;-148.15;100.00;61821.78;5002797;28;20030;-87
2023/10/31 08:27:12;;;;;;;53.67;26.53;;;;;;;-148.15;100.00;61821.78;4997767;28;20304;-88
2023/10/31 08:29:38;;;;;;;53.63;27.05;;;;;;;-148.15;100.00;61821.78;4992971;28;20477;-85
2023/10/31 08:32:03;;;;;;;53.63;26.47;;;;;;;-148.15;100.00;61821.78;4993286;28;20029;-86
2023/10/31 08:34:29;;;;;;;53.37;25.90;;;;;;;-148.15;100.00;61821.78;4995814;28;20034;-86
2023/10/31 08:36:56;;;;;;;60.37;29.03;;;;;;;-148.15;100.00;61821.78;4997957;28;20315;-86
2023/10/31 08:47:07;;;;;;;49.78;25.30;;;;;;;-148.15;100.00;61821.78;5234379;23;20109;-84
2023/10/31 08:49:32;;;;;;;46.40;23.70;;;;;;;-148.15;100.00;61821.78;4970972;28;20027;-84
2023/10/31 09:04:54;;;;;;;40.90;20.00;;;;;;;-148.15;100.00;61821.78;5654377;23;20050;-82
2023/10/31 09:08:16;;;;;;;;;;;;;;;;;;;;;
2023/10/31 09:13:39;;;;;;;39.28;19.30;;;;;;;-148.15;100.00;61821.78;5213798;23;20137;-83
2023/10/31 09:16:22;;;;;;;37.43;18.90;;;;;;;-148.15;100.00;61821.78;4991563;28;20037;-84
2023/10/31 09:18:48;;;;;;;36.08;18.27;;;;;;;-148.15;100.00;61821.78;4992114;28;20495;-83
2023/10/31 09:21:13;;;;;;;38.13;18.00;;;;;;;-148.15;100.00;61821.78;4992781;28;20022;-83
2023/10/31 09:23:39;;;;;;;32.90;18.27;;;;;;;-148.15;100.00;61821.78;4990307;28;20445;-84
2023/10/31 09:26:04;;;;;;;35.83;18.70;;;;;;;-148.15;100.00;61821.78;4991034;28;20038;-83
2023/10/31 09:28:30;;;;;;;40.03;18.53;;;;;;;-148.15;100.00;61821.78;4991202;28;20037;-83
2023/10/31 09:30:55;;;;;;;40.33;18.85;;;;;;;-148.15;100.00;61821.78;4990056;28;20469;-84
2023/10/31 09:33:21;;;;;;;36.47;18.17;;;;;;;-148.15;100.00;61821.78;4985952;28;20023;-83
2023/10/31 09:35:46;;;;;;;35.85;19.48;;;;;;;-148.15;100.00;61821.78;4989631;28;20374;-84
2023/10/31 09:38:11;;;;;;;33.47;18.03;;;;;;;-148.15;100.00;61821.78;4991110;28;20019;-85
2023/10/31 09:40:38;;;;;;;32.43;17.33;;;;;;;-148.15;100.00;61821.78;4987928;28;20030;-84
2023/10/31 09:43:04;;;;;;;31.05;17.08;;;;;;;-148.15;100.00;61821.78;4990405;28;20022;-84
2023/10/31 09:45:29;;;;;;;26.77;15.97;;;;;;;-148.15;100.00;61821.78;4989497;28;20080;-84
2023/10/31 09:47:56;;;;;;;25.90;15.70;;;;;;;-148.15;100.00;61821.78;4976302;28;20364;-84
2023/10/31 09:50:21;;;;;;;23.27;14.27;;;;;;;-148.15;100.00;61821.78;4978801;28;20053;-84
2023/10/31 09:52:48;;;;;;;24.42;15.02;;;;;;;-148.15;100.00;61821.78;4986142;28;20076;-84
2023/10/31 09:55:15;;;;;;;20.48;14.20;;;;;;;-148.15;100.00;61821.78;4990991;28;20034;-84
2023/10/31 09:57:40;;;;;;;23.77;13.90;;;;;;;-148.15;100.00;61821.78;4986804;28;20030;-84
2023/10/31 10:00:06;;;;;;;23.23;14.03;;;;;;;-148.15;100.00;61821.78;4991100;28;20092;-84
2023/10/31 10:02:32;;;;;;;22.98;14.23;;;;;;;-148.15;100.00;61821.78;4988016;28;20030;-84
2023/10/31 10:04:57;;;;;;;27.70;14.10;;;;;;;-148.15;100.00;61821.78;4990127;28;20038;-85
2023/10/31 10:07:23;;;;;;;23.73;14.73;;;;;;;-148.15;100.00;61821.78;4986165;28;20121;-84
2023/10/31 10:09:48;;;;;;;22.70;13.53;;;;;;;-148.15;100.00;61821.78;4991207;28;20026;-84
2023/10/31 10:12:15;;;;;;;26.33;15.27;;;;;;;-148.15;100.00;61821.78;4990154;28;20025;-85
2023/10/31 10:14:41;;;;;;;25.17;14.70;;;;;;;-148.15;100.00;61821.78;4990272;28;20033;-84
2023/10/31 10:17:18;;;;;;;24.92;14.73;;;;;;;-148.15;100.00;61821.78;4989397;28;20031;-85
2023/10/31 10:19:43;;;;;;;23.33;14.43;;;;;;;-148.15;100.00;61821.78;4990473;28;20034;-84
2023/10/31 10:22:10;;;;;;;22.63;13.77;;;;;;;-148.15;100.00;61821.78;4990152;28;20684;-84
2023/10/31 10:24:38;;;;;;;20.35;13.10;;;;;;;-148.15;100.00;61821.78;4985062;28;20390;-85
2023/10/31 10:27:04;;;;;;;20.40;12.15;;;;;;;-148.15;100.00;61821.78;4985904;28;20041;-84
2023/10/31 10:29:29;;;;;;;20.80;13.07;;;;;;;-148.15;100.00;61821.78;4990543;28;20390;-86
2023/10/31 10:31:54;;;;;;;16.60;12.50;;;;;;;-148.15;100.00;61821.78;4989130;28;20031;-84
2023/10/31 10:34:20;;;;;;;21.47;12.60;;;;;;;-148.15;100.00;61821.78;4988062;28;20474;-84
2023/10/31 10:36:49;;;;;;;20.42;12.85;;;;;;;-148.15;100.00;61821.78;4987571;28;20033;-86
2023/10/31 10:39:20;;;;;;;20.33;12.60;;;;;;;-148.15;100.00;61821.78;4990003;28;20104;-85
2023/10/31 10:41:50;;;;;;;19.20;11.83;;;;;;;-148.15;100.00;61821.78;4986898;28;20038;-84
2023/10/31 10:44:16;;;;;;;15.30;11.50;;;;;;;-148.15;100.00;61821.78;4987663;28;20280;-86
2023/10/31 10:46:50;;;;;;;14.88;10.77;;;;;;;-148.15;100.00;61821.78;4978957;28;20383;-84
2023/10/31 10:49:16;;;;;;;14.15;11.20;;;;;;;-148.15;100.00;61821.78;4990342;28;20026;-85
2023/10/31 10:52:01;;;;;;;15.02;11.60;;;;;;;-148.15;100.00;61821.78;4989376;28;20030;-86
2023/10/31 10:55:01;;;;;;;17.00;11.32;;;;;;;-148.15;100.00;61821.78;4989967;28;20034;-86
2023/10/31 10:57:42;;;;;;;14.60;10.47;;;;;;;-148.15;100.00;61821.78;4989946;28;20360;-84
2023/10/31 11:00:09;;;;;;;16.73;10.32;;;;;;;-148.15;100.00;61821.78;4989964;28;20057;-85
2023/10/31 11:02:36;;;;;;;14.18;10.10;;;;;;;-148.15;100.00;61821.78;4987218;28;20034;-85
2023/10/31 11:05:05;;;;;;;14.88;10.40;;;;;;;-148.15;100.00;61821.78;4990236;28;20023;-85
2023/10/31 11:07:32;;;;;;;15.75;10.95;;;;;;;-148.15;100.00;61821.78;4990110;28;20022;-86
2023/10/31 11:09:58;;;;;;;16.80;10.97;;;;;;;-148.15;100.00;61821.78;4991886;28;20026;-87
2023/10/31 11:12:25;;;;;;;14.50;11.07;;;;;;;-148.15;100.00;61821.78;4989425;28;20289;-87
2023/10/31 11:14:51;;;;;;;17.67;11.45;;;;;;;-148.15;100.00;61821.78;4981443;28;20482;-85
2023/10/31 11:17:29;;;;;;;18.00;11.32;;;;;;;-148.15;100.00;61821.78;4989611;28;20034;-86